OCN9DY GMMX-EDDF
Flight info
| Callsign | OCN9DY |
|---|---|
| Flight time | N/A |
| Altitude | 36000 |
| Route | OBOGA UG850 BERUM DCT NUNKA DCT LUMAS DCT SOFFY DCT GIGUS DCT MOBLO DCT DITON DCT LADOL T163 EMPAX EMPAX5C |
| Aircraft | A320/M-SDE3FGHIRWY/LB1 |
Departure
| Time | 2026-05-08 16:30 |
|---|---|
| Airport | Marrakesh Menara Airport (GMMX) |
Arrival
| Time | N/A |
|---|---|
| Airport | Frankfurt Main Airport (EDDF) |
| Time | Latitude | Longitude | Altitude | Speed | Heading |
|---|---|---|---|---|---|
| 2026-05-08 16:00 | 31.60145 | -8.02327 | 1549 ft | 0 kts | 264° |
| 2026-05-08 16:03 | 31.60145 | -8.02315 | 1549 ft | 0 kts | 264° |
| 2026-05-08 16:25 | 31.60147 | -8.02290 | 1549 ft | 4 kts | 269° |
| 2026-05-08 16:25 | 31.60146 | -8.02259 | 1549 ft | 4 kts | 282° |
| 2026-05-08 16:25 | 31.60137 | -8.02230 | 1549 ft | 4 kts | 314° |
| 2026-05-08 16:25 | 31.60122 | -8.02220 | 1549 ft | 0 kts | 6° |
| 2026-05-08 16:27 | 31.60128 | -8.02220 | 1549 ft | 5 kts | 6° |
| 2026-05-08 16:27 | 31.60209 | -8.02211 | 1549 ft | 14 kts | 5° |
| 2026-05-08 16:28 | 31.60309 | -8.02201 | 1548 ft | 14 kts | 5° |
| 2026-05-08 16:28 | 31.60386 | -8.02161 | 1546 ft | 12 kts | 89° |
| 2026-05-08 16:28 | 31.60380 | -8.02066 | 1540 ft | 11 kts | 93° |
| 2026-05-08 16:28 | 31.60440 | -8.02032 | 1540 ft | 12 kts | 4° |
| 2026-05-08 16:29 | 31.60544 | -8.02032 | 1524 ft | 12 kts | 324° |
| 2026-05-08 16:29 | 31.60556 | -8.02120 | 1527 ft | 11 kts | 274° |
| 2026-05-08 16:29 | 31.60574 | -8.02335 | 1533 ft | 56 kts | 275° |
| 2026-05-08 16:29 | 31.60637 | -8.03032 | 1537 ft | 114 kts | 275° |
| 2026-05-08 16:30 | 31.60733 | -8.04146 | 1561 ft | 158 kts | 275° |
| 2026-05-08 16:30 | 31.60827 | -8.05432 | 2136 ft | 157 kts | 274° |
| 2026-05-08 16:30 | 31.60921 | -8.06705 | 2794 ft | 157 kts | 275° |
| 2026-05-08 16:30 | 31.61022 | -8.08040 | 3190 ft | 174 kts | 275° |
| 2026-05-08 16:31 | 31.61144 | -8.09538 | 3434 ft | 195 kts | 276° |
| 2026-05-08 16:31 | 31.61283 | -8.11216 | 3798 ft | 218 kts | 276° |
| 2026-05-08 16:31 | 31.61460 | -8.13041 | 4397 ft | 229 kts | 277° |
| 2026-05-08 16:31 | 31.61648 | -8.14929 | 5186 ft | 234 kts | 276° |
| 2026-05-08 16:32 | 31.62025 | -8.16806 | 5931 ft | 243 kts | 293° |
| 2026-05-08 16:32 | 31.62996 | -8.18468 | 6621 ft | 253 kts | 313° |
| 2026-05-08 16:32 | 31.64473 | -8.19648 | 7317 ft | 264 kts | 334° |
| 2026-05-08 16:32 | 31.66295 | -8.20106 | 8046 ft | 273 kts | 358° |
| 2026-05-08 16:33 | 31.68180 | -8.19685 | 8767 ft | 281 kts | 24° |
| 2026-05-08 16:33 | 31.69791 | -8.18379 | 9481 ft | 285 kts | 50° |
| 2026-05-08 16:33 | 31.70806 | -8.16399 | 10147 ft | 285 kts | 76° |
| 2026-05-08 16:33 | 31.71187 | -8.14122 | 10803 ft | 287 kts | 83° |
| 2026-05-08 16:34 | 31.71712 | -8.11833 | 11454 ft | 294 kts | 75° |
| 2026-05-08 16:34 | 31.72371 | -8.09547 | 12125 ft | 298 kts | 74° |
| 2026-05-08 16:34 | 31.73043 | -8.07219 | 12797 ft | 303 kts | 74° |
| 2026-05-08 16:34 | 31.73701 | -8.04849 | 13462 ft | 307 kts | 77° |
| 2026-05-08 16:35 | 31.74162 | -8.02423 | 14067 ft | 310 kts | 83° |
| 2026-05-08 16:35 | 31.74487 | -7.99911 | 14654 ft | 313 kts | 86° |
| 2026-05-08 16:35 | 31.74760 | -7.97356 | 15257 ft | 317 kts | 85° |
| 2026-05-08 16:35 | 31.75250 | -7.94803 | 15847 ft | 323 kts | 76° |
| 2026-05-08 16:36 | 31.76195 | -7.92391 | 16417 ft | 330 kts | 55° |
| 2026-05-08 16:36 | 31.77640 | -7.90260 | 16872 ft | 341 kts | 49° |
| 2026-05-08 16:36 | 31.79293 | -7.88141 | 17000 ft | 361 kts | 48° |
| 2026-05-08 16:36 | 31.80967 | -7.85834 | 17133 ft | 380 kts | 51° |
| 2026-05-08 16:37 | 31.82655 | -7.83344 | 17261 ft | 398 kts | 52° |
| 2026-05-08 16:37 | 31.84400 | -7.80732 | 17412 ft | 415 kts | 51° |
| 2026-05-08 16:37 | 31.86275 | -7.78073 | 17544 ft | 431 kts | 49° |
| 2026-05-08 16:37 | 31.88290 | -7.75384 | 17679 ft | 445 kts | 48° |
| 2026-05-08 16:38 | 31.90412 | -7.72665 | 17804 ft | 458 kts | 47° |
| 2026-05-08 16:38 | 31.92617 | -7.69892 | 17952 ft | 470 kts | 47° |
| 2026-05-08 16:38 | 31.94878 | -7.67044 | 18079 ft | 481 kts | 47° |
| 2026-05-08 16:38 | 31.97161 | -7.64137 | 18344 ft | 487 kts | 47° |
| 2026-05-08 16:39 | 31.99455 | -7.61182 | 18661 ft | 491 kts | 47° |
| 2026-05-08 16:39 | 32.01755 | -7.58190 | 18987 ft | 494 kts | 48° |
| 2026-05-08 16:39 | 32.04062 | -7.55173 | 19297 ft | 497 kts | 48° |
| 2026-05-08 16:39 | 32.06379 | -7.52136 | 19611 ft | 500 kts | 48° |
| 2026-05-08 16:40 | 32.08715 | -7.49077 | 19917 ft | 504 kts | 47° |
| 2026-05-08 16:40 | 32.11070 | -7.46002 | 20202 ft | 507 kts | 47° |
| 2026-05-08 16:40 | 32.13446 | -7.42902 | 20508 ft | 510 kts | 47° |
| 2026-05-08 16:40 | 32.15831 | -7.39786 | 20794 ft | 513 kts | 47° |
| 2026-05-08 16:41 | 32.18227 | -7.36653 | 21079 ft | 516 kts | 47° |
| 2026-05-08 16:41 | 32.20642 | -7.33489 | 21357 ft | 519 kts | 47° |
| 2026-05-08 16:41 | 32.23063 | -7.30307 | 21635 ft | 522 kts | 47° |
| 2026-05-08 16:42 | 32.27942 | -7.23878 | 22147 ft | 528 kts | 47° |
| 2026-05-08 16:42 | 32.30398 | -7.20641 | 22376 ft | 531 kts | 47° |
| 2026-05-08 16:42 | 32.32880 | -7.17382 | 22625 ft | 534 kts | 47° |
| 2026-05-08 16:42 | 32.35374 | -7.14114 | 22871 ft | 537 kts | 47° |
| 2026-05-08 16:43 | 32.37883 | -7.10822 | 23128 ft | 539 kts | 47° |
| 2026-05-08 16:43 | 32.40397 | -7.07515 | 23397 ft | 542 kts | 47° |
| 2026-05-08 16:43 | 32.42887 | -7.04241 | 23729 ft | 542 kts | 47° |
| 2026-05-08 16:43 | 32.45407 | -7.00924 | 24012 ft | 542 kts | 47° |
| 2026-05-08 16:44 | 32.47927 | -6.97602 | 24323 ft | 543 kts | 47° |
| 2026-05-08 16:44 | 32.50449 | -6.94275 | 24627 ft | 543 kts | 47° |
| 2026-05-08 16:44 | 32.52968 | -6.90941 | 24940 ft | 543 kts | 47° |
| 2026-05-08 16:44 | 32.55491 | -6.87598 | 25255 ft | 544 kts | 47° |
| 2026-05-08 16:45 | 32.58011 | -6.84254 | 25551 ft | 544 kts | 47° |
| 2026-05-08 16:45 | 32.60528 | -6.80910 | 25908 ft | 543 kts | 47° |
| 2026-05-08 16:45 | 32.63035 | -6.77574 | 26253 ft | 543 kts | 47° |
| 2026-05-08 16:45 | 32.65550 | -6.74226 | 26592 ft | 543 kts | 47° |
| 2026-05-08 16:46 | 32.68065 | -6.70884 | 26916 ft | 543 kts | 47° |
| 2026-05-08 16:46 | 32.70582 | -6.67539 | 27244 ft | 544 kts | 47° |
| 2026-05-08 16:46 | 32.73101 | -6.64189 | 27596 ft | 544 kts | 47° |
| 2026-05-08 16:46 | 32.75624 | -6.60828 | 27925 ft | 545 kts | 47° |
| 2026-05-08 16:47 | 32.78142 | -6.57466 | 28261 ft | 545 kts | 47° |
| 2026-05-08 16:47 | 32.80661 | -6.54099 | 28595 ft | 546 kts | 47° |
| 2026-05-08 16:47 | 32.83183 | -6.50722 | 28937 ft | 546 kts | 47° |
| 2026-05-08 16:47 | 32.85703 | -6.47344 | 29274 ft | 546 kts | 47° |
| 2026-05-08 16:48 | 32.88221 | -6.43966 | 29608 ft | 546 kts | 47° |
| 2026-05-08 16:48 | 32.90744 | -6.40582 | 29964 ft | 546 kts | 47° |
| 2026-05-08 16:48 | 32.93265 | -6.37196 | 30264 ft | 546 kts | 47° |
| 2026-05-08 16:48 | 32.95784 | -6.33820 | 30554 ft | 546 kts | 47° |
| 2026-05-08 16:49 | 32.98308 | -6.30446 | 30864 ft | 545 kts | 47° |
| 2026-05-08 16:49 | 33.00827 | -6.27083 | 31222 ft | 544 kts | 47° |
| 2026-05-08 16:49 | 33.03344 | -6.23715 | 31493 ft | 545 kts | 47° |
| 2026-05-08 16:49 | 33.05861 | -6.20335 | 31797 ft | 544 kts | 47° |
| 2026-05-08 16:50 | 33.08374 | -6.16955 | 32117 ft | 544 kts | 47° |
| 2026-05-08 16:50 | 33.10878 | -6.13582 | 32436 ft | 543 kts | 47° |
| 2026-05-08 16:50 | 33.13381 | -6.10205 | 32760 ft | 543 kts | 47° |
| 2026-05-08 16:50 | 33.15876 | -6.06836 | 33061 ft | 542 kts | 46° |
| 2026-05-08 16:51 | 33.18371 | -6.03466 | 33398 ft | 541 kts | 46° |
| 2026-05-08 16:51 | 33.20856 | -6.00109 | 33725 ft | 540 kts | 46° |
| 2026-05-08 16:51 | 33.23342 | -5.96750 | 34037 ft | 539 kts | 46° |
| 2026-05-08 16:51 | 33.25821 | -5.93395 | 34310 ft | 539 kts | 46° |
| 2026-05-08 16:52 | 33.28297 | -5.90044 | 34563 ft | 538 kts | 46° |
| 2026-05-08 16:52 | 33.30775 | -5.86687 | 34810 ft | 538 kts | 47° |
| 2026-05-08 16:52 | 33.33252 | -5.83330 | 35047 ft | 538 kts | 47° |
| 2026-05-08 16:52 | 33.35722 | -5.79977 | 35299 ft | 537 kts | 47° |
| 2026-05-08 16:53 | 33.40643 | -5.73259 | 35730 ft | 535 kts | 47° |
| 2026-05-08 16:53 | 33.45549 | -5.66542 | 35890 ft | 537 kts | 47° |
| 2026-05-08 16:54 | 33.50498 | -5.59763 | 35906 ft | 542 kts | 47° |
| 2026-05-08 16:54 | 33.55465 | -5.52946 | 35906 ft | 543 kts | 47° |
| 2026-05-08 16:55 | 33.60445 | -5.46102 | 35912 ft | 545 kts | 47° |
| 2026-05-08 16:55 | 33.65435 | -5.39228 | 35913 ft | 546 kts | 47° |
| 2026-05-08 16:56 | 33.70421 | -5.32344 | 35870 ft | 546 kts | 48° |
| 2026-05-08 16:56 | 33.75356 | -5.25516 | 35901 ft | 545 kts | 48° |
| 2026-05-08 16:57 | 33.80357 | -5.18596 | 35907 ft | 544 kts | 48° |
| 2026-05-08 16:57 | 33.85281 | -5.11763 | 35935 ft | 544 kts | 48° |
| 2026-05-08 16:58 | 33.90233 | -5.04866 | 35919 ft | 544 kts | 48° |
| 2026-05-08 16:58 | 33.95708 | -4.98653 | 35911 ft | 539 kts | 33° |
| 2026-05-08 16:59 | 34.01710 | -4.93213 | 35898 ft | 540 kts | 34° |
| 2026-05-08 16:59 | 34.07693 | -4.87743 | 35888 ft | 540 kts | 34° |
| 2026-05-08 17:00 | 34.13673 | -4.82263 | 35894 ft | 540 kts | 34° |
| 2026-05-08 17:00 | 34.19644 | -4.76790 | 35870 ft | 541 kts | 34° |
| 2026-05-08 17:01 | 34.25650 | -4.71286 | 35858 ft | 542 kts | 34° |
| 2026-05-08 17:01 | 34.31656 | -4.65771 | 35858 ft | 542 kts | 34° |
| 2026-05-08 17:02 | 34.37666 | -4.60242 | 35852 ft | 542 kts | 34° |
| 2026-05-08 17:02 | 34.43661 | -4.54690 | 35851 ft | 543 kts | 34° |
| 2026-05-08 17:03 | 34.49645 | -4.49091 | 35855 ft | 543 kts | 34° |
| 2026-05-08 17:03 | 34.55584 | -4.43527 | 35861 ft | 543 kts | 34° |
| 2026-05-08 17:04 | 34.61569 | -4.37929 | 35865 ft | 543 kts | 34° |
| 2026-05-08 17:04 | 34.67549 | -4.32330 | 35901 ft | 543 kts | 34° |
| 2026-05-08 17:05 | 34.73516 | -4.26716 | 35902 ft | 543 kts | 35° |
| 2026-05-08 17:05 | 34.79484 | -4.21085 | 35909 ft | 542 kts | 34° |
| 2026-05-08 17:06 | 34.85437 | -4.15466 | 35895 ft | 541 kts | 35° |
| 2026-05-08 17:06 | 34.91398 | -4.09842 | 35904 ft | 542 kts | 34° |
| 2026-05-08 17:07 | 34.97361 | -4.04200 | 35917 ft | 542 kts | 35° |
| 2026-05-08 17:07 | 35.03313 | -3.98549 | 35906 ft | 542 kts | 34° |
| 2026-05-08 17:08 | 35.09265 | -3.92887 | 35911 ft | 542 kts | 35° |
| 2026-05-08 17:08 | 35.14215 | -3.88175 | 35911 ft | 542 kts | 35° |
| 2026-05-08 17:09 | 35.20163 | -3.82512 | 35936 ft | 543 kts | 35° |
| 2026-05-08 17:09 | 35.26171 | -3.76918 | 35902 ft | 542 kts | 34° |
| 2026-05-08 17:10 | 35.32209 | -3.71385 | 35920 ft | 542 kts | 33° |
| 2026-05-08 17:10 | 35.38244 | -3.65824 | 35919 ft | 543 kts | 34° |
| 2026-05-08 17:11 | 35.44258 | -3.60223 | 35926 ft | 543 kts | 34° |
| 2026-05-08 17:11 | 35.50275 | -3.54598 | 35938 ft | 544 kts | 34° |
| 2026-05-08 17:12 | 35.56294 | -3.48974 | 35920 ft | 544 kts | 34° |
| 2026-05-08 17:12 | 35.62323 | -3.43333 | 35930 ft | 545 kts | 34° |
| 2026-05-08 17:13 | 35.68350 | -3.37683 | 35937 ft | 545 kts | 34° |
| 2026-05-08 17:13 | 35.74385 | -3.32018 | 35950 ft | 546 kts | 34° |
| 2026-05-08 17:14 | 35.80420 | -3.26349 | 35940 ft | 546 kts | 34° |
| 2026-05-08 17:14 | 35.86179 | -3.20221 | 35938 ft | 549 kts | 42° |
| 2026-05-08 17:15 | 35.91679 | -3.13668 | 35948 ft | 550 kts | 41° |
| 2026-05-08 17:15 | 35.97157 | -3.07179 | 35947 ft | 550 kts | 41° |
| 2026-05-08 17:16 | 36.02672 | -3.00639 | 35937 ft | 550 kts | 41° |
| 2026-05-08 17:16 | 36.08179 | -2.94084 | 35944 ft | 550 kts | 41° |
| 2026-05-08 17:17 | 36.13678 | -2.87503 | 35941 ft | 550 kts | 41° |
| 2026-05-08 17:17 | 36.19167 | -2.80915 | 35949 ft | 550 kts | 41° |
| 2026-05-08 17:18 | 36.24661 | -2.74316 | 35975 ft | 550 kts | 41° |
| 2026-05-08 17:18 | 36.30162 | -2.67706 | 35955 ft | 551 kts | 41° |
| 2026-05-08 17:19 | 36.35658 | -2.61087 | 35941 ft | 551 kts | 41° |
| 2026-05-08 17:19 | 36.41149 | -2.54449 | 35948 ft | 551 kts | 41° |
| 2026-05-08 17:20 | 36.46635 | -2.47798 | 35955 ft | 551 kts | 41° |
| 2026-05-08 17:20 | 36.52119 | -2.41156 | 35969 ft | 551 kts | 41° |
| 2026-05-08 17:21 | 36.57611 | -2.34495 | 35962 ft | 551 kts | 41° |
| 2026-05-08 17:21 | 36.63090 | -2.27814 | 35932 ft | 551 kts | 41° |
| 2026-05-08 17:22 | 36.68560 | -2.21132 | 35949 ft | 551 kts | 41° |
| 2026-05-08 17:22 | 36.74027 | -2.14448 | 35991 ft | 550 kts | 41° |
| 2026-05-08 17:23 | 36.79495 | -2.07752 | 35977 ft | 551 kts | 41° |
| 2026-05-08 17:23 | 36.84917 | -2.01089 | 35972 ft | 551 kts | 41° |
| 2026-05-08 17:24 | 36.90372 | -1.94367 | 35964 ft | 551 kts | 42° |